createdAt,value
2022-10-13T00:00:11.942Z,548.7
2022-10-13T00:01:15.041Z,548.8
2022-10-13T00:02:19.368Z,549.1
2022-10-13T00:03:21.749Z,549.2
2022-10-13T00:04:24.292Z,548.9
2022-10-13T00:05:26.761Z,549.1
2022-10-13T00:06:28.951Z,549.1
2022-10-13T00:07:31.431Z,549
2022-10-13T00:08:33.627Z,549.3
2022-10-13T00:09:36.100Z,549.4
2022-10-13T00:10:38.299Z,549.4
2022-10-13T00:11:40.768Z,549.8
2022-10-13T00:12:43.236Z,550.2
2022-10-13T00:13:45.175Z,550
2022-10-13T00:14:47.376Z,550
2022-10-13T00:15:49.600Z,550
2022-10-13T00:16:52.115Z,549.8
2022-10-13T00:17:54.582Z,549.9
2022-10-13T00:18:56.784Z,549.9
2022-10-13T00:19:59.363Z,550.2
2022-10-13T00:21:01.566Z,550.1
2022-10-13T00:22:04.033Z,550.1
2022-10-13T00:23:06.511Z,550.2
2022-10-13T00:24:08.984Z,550.2
2022-10-13T00:25:11.202Z,550
2022-10-13T00:26:13.386Z,550.3
2022-10-13T00:27:15.610Z,550.1
2022-10-13T00:28:18.379Z,550.4
2022-10-13T00:29:20.875Z,550.4
2022-10-13T00:30:22.776Z,550
2022-10-13T00:31:25.262Z,550.2
2022-10-13T00:32:27.768Z,549.8
2022-10-13T00:33:29.978Z,549.8
2022-10-13T00:34:31.902Z,549.7
2022-10-13T00:35:34.554Z,550.1
2022-10-13T00:36:37.038Z,550.4
2022-10-13T00:37:39.229Z,549.8
2022-10-13T00:38:41.443Z,550.1
2022-10-13T00:39:43.913Z,549.8
2022-10-13T00:40:46.440Z,550.1
2022-10-13T00:41:48.934Z,550.5
2022-10-13T00:42:51.129Z,550.5
2022-10-13T00:43:53.323Z,550.9
2022-10-13T00:44:55.519Z,550.6
2022-10-13T00:45:57.722Z,550.6
2022-10-13T00:47:00.193Z,550.9
2022-10-13T00:48:02.719Z,550.3
2022-10-13T00:49:04.891Z,550.7
2022-10-13T00:50:07.075Z,550.7
2022-10-13T00:51:09.337Z,550.4
2022-10-13T00:52:11.822Z,550.7
2022-10-13T00:53:14.050Z,550.8
2022-10-13T00:54:16.519Z,550.6
2022-10-13T00:55:18.986Z,550.7
2022-10-13T00:56:20.902Z,550.9
2022-10-13T00:57:22.829Z,550.9
2022-10-13T00:58:25.312Z,550.9
2022-10-13T00:59:27.270Z,551.1
2022-10-13T01:00:29.162Z,551.1
2022-10-13T01:01:31.404Z,551
2022-10-13T01:02:33.320Z,551
2022-10-13T01:03:35.845Z,550.9
2022-10-13T01:04:38.316Z,550.6
2022-10-13T01:05:40.514Z,550.9
2022-10-13T01:06:42.767Z,550.8
2022-10-13T01:07:44.960Z,550.7
2022-10-13T01:08:47.130Z,550.9
2022-10-13T01:09:49.620Z,550.6
2022-10-13T01:10:52.094Z,550.8
2022-10-13T01:11:54.567Z,551.1
2022-10-13T01:12:56.778Z,550.8
2022-10-13T01:13:58.976Z,550.8
2022-10-13T01:15:01.168Z,550.8
2022-10-13T01:16:03.643Z,551.2
2022-10-13T01:17:06.108Z,551
2022-10-13T01:18:08.318Z,551
2022-10-13T01:19:10.821Z,550.9
2022-10-13T01:20:13.309Z,551
2022-10-13T01:21:15.777Z,550.6
2022-10-13T01:22:20.596Z,550.6
2022-10-13T01:23:23.170Z,550.8
2022-10-13T01:24:25.640Z,551
2022-10-13T01:25:27.851Z,550.9
2022-10-13T01:26:30.312Z,551.1
2022-10-13T01:27:32.509Z,550.6
2022-10-13T01:28:35.540Z,550.5
2022-10-13T01:29:37.472Z,550.5
2022-10-13T01:30:39.937Z,550.7
2022-10-13T01:31:42.422Z,550.4
2022-10-13T01:32:44.494Z,551
2022-10-13T01:33:46.684Z,550.8
2022-10-13T01:34:49.210Z,550.9
2022-10-13T01:35:51.383Z,551
2022-10-13T01:36:53.574Z,550.8
2022-10-13T01:37:56.183Z,550.7
2022-10-13T01:38:58.659Z,550.8
2022-10-13T01:40:01.141Z,550.4
2022-10-13T01:41:03.621Z,550.1
2022-10-13T01:42:06.090Z,550.1
2022-10-13T01:43:08.296Z,550.5
2022-10-13T01:44:10.230Z,550.4
2022-10-13T01:45:12.701Z,550.4
2022-10-13T01:46:14.638Z,550.5
2022-10-13T01:47:17.106Z,550.5
2022-10-13T01:48:19.332Z,550.3
2022-10-13T01:49:21.530Z,550.3
2022-10-13T01:50:23.758Z,550.1
2022-10-13T01:51:26.486Z,550.3
2022-10-13T01:52:28.959Z,550.2
2022-10-13T01:53:31.477Z,550.1
2022-10-13T01:54:33.939Z,550.3
2022-10-13T01:55:36.405Z,550.7
2022-10-13T01:56:38.304Z,550.9
2022-10-13T01:57:40.219Z,551
2022-10-13T01:58:42.405Z,550.6
2022-10-13T01:59:44.580Z,550.7
2022-10-13T02:00:47.041Z,550.4
2022-10-13T02:01:49.003Z,550.7
2022-10-13T02:02:51.474Z,550.5
2022-10-13T02:03:53.668Z,550.8
2022-10-13T02:04:56.164Z,551
2022-10-13T02:05:58.677Z,550.7
2022-10-13T02:07:00.877Z,550.7
2022-10-13T02:08:03.355Z,550.8
2022-10-13T02:09:05.597Z,550.4
2022-10-13T02:10:08.080Z,550.6
2022-10-13T02:11:10.272Z,550.6
2022-10-13T02:12:12.752Z,550.3
2022-10-13T02:13:14.946Z,550.2
2022-10-13T02:14:16.868Z,550.4
2022-10-13T02:15:19.344Z,549.9
2022-10-13T02:16:21.267Z,550
2022-10-13T02:17:23.447Z,549.6
2022-10-13T02:18:25.925Z,549.7
2022-10-13T02:19:28.390Z,549.6
2022-10-13T02:20:30.871Z,549.6
2022-10-13T02:21:33.367Z,549.5
2022-10-13T02:22:35.294Z,549.4
2022-10-13T02:23:37.758Z,549.7
2022-10-13T02:24:40.398Z,549.7
2022-10-13T02:25:42.856Z,549.7
2022-10-13T02:26:44.761Z,549.8
2022-10-13T02:27:46.959Z,550
2022-10-13T02:28:49.670Z,550.4
2022-10-13T02:29:51.599Z,550.5
2022-10-13T02:30:53.803Z,550.5
2022-10-13T02:31:56.063Z,550.4
2022-10-13T02:32:58.248Z,550.2
2022-10-13T02:34:00.445Z,550.3
2022-10-13T02:35:02.941Z,550.5
2022-10-13T02:36:05.136Z,550.5
2022-10-13T02:37:07.663Z,550.9
2022-10-13T02:38:10.089Z,551
2022-10-13T02:39:12.556Z,551
2022-10-13T02:40:15.087Z,551
2022-10-13T02:41:16.734Z,551.2
2022-10-13T02:42:20.944Z,550.7
2022-10-13T02:43:23.721Z,550.8
2022-10-13T02:44:26.186Z,550.6
2022-10-13T02:45:28.377Z,550.8
2022-10-13T02:46:30.863Z,550.7
2022-10-13T02:47:33.063Z,550.5
2022-10-13T02:48:35.533Z,550.7
2022-10-13T02:49:37.566Z,550.8
2022-10-13T02:50:40.034Z,551
2022-10-13T02:51:42.414Z,550.7
2022-10-13T02:52:44.936Z,550.9
2022-10-13T02:53:47.140Z,550.9
2022-10-13T02:54:49.608Z,550.8
2022-10-13T02:55:52.135Z,550.8
2022-10-13T02:56:54.333Z,550.8
2022-10-13T02:57:56.524Z,551
2022-10-13T02:58:58.424Z,550.8
2022-10-13T03:00:00.337Z,550.9
2022-10-13T03:01:02.883Z,551.2
2022-10-13T03:02:05.103Z,551.2
2022-10-13T03:03:07.585Z,551
2022-10-13T03:04:10.055Z,551.3
2022-10-13T03:05:11.972Z,551.4
2022-10-13T03:06:14.173Z,551.7
2022-10-13T03:07:16.361Z,551.9
2022-10-13T03:08:18.883Z,552.1
2022-10-13T03:09:21.347Z,552
2022-10-13T03:10:23.271Z,551.8
2022-10-13T03:11:26.008Z,551.8
2022-10-13T03:12:28.536Z,551.7
2022-10-13T03:13:30.184Z,551.7
2022-10-13T03:14:32.693Z,552.1
2022-10-13T03:15:34.620Z,552
2022-10-13T03:16:37.091Z,552.5
2022-10-13T03:17:39.574Z,552.5
2022-10-13T03:18:41.773Z,552.7
2022-10-13T03:19:43.716Z,553.2
2022-10-13T03:20:46.183Z,552.8
2022-10-13T03:21:48.458Z,553.4
2022-10-13T03:22:51.872Z,553.3
2022-10-13T03:23:53.817Z,553.2
2022-10-13T03:24:56.330Z,552.6
2022-10-13T03:25:58.795Z,553.1
2022-10-13T03:27:01.138Z,553.2
2022-10-13T03:28:04.015Z,552.7
2022-10-13T03:29:06.204Z,552.6
2022-10-13T03:30:08.101Z,553.1
2022-10-13T03:31:10.298Z,553
2022-10-13T03:32:12.783Z,553.1
2022-10-13T03:33:15.257Z,553.3
2022-10-13T03:34:17.735Z,552.9
2022-10-13T03:35:19.942Z,552.7
2022-10-13T03:36:21.841Z,552.6
2022-10-13T03:37:23.758Z,552.7
2022-10-13T03:38:26.141Z,552.6
2022-10-13T03:39:28.834Z,552.5
2022-10-13T03:40:31.331Z,552.1
2022-10-13T03:41:33.794Z,551.9
2022-10-13T03:42:36.356Z,551.5
2022-10-13T03:43:38.538Z,551.9
2022-10-13T03:44:40.732Z,551.7
2022-10-13T03:45:43.194Z,551.6
2022-10-13T03:46:45.367Z,551.7
2022-10-13T03:47:47.574Z,551.5
2022-10-13T03:48:50.059Z,551.3
2022-10-13T03:49:52.248Z,551.1
2022-10-13T03:50:54.714Z,550.9
2022-10-13T03:51:57.197Z,551.4
2022-10-13T03:52:59.098Z,551
2022-10-13T03:54:01.562Z,551.3
2022-10-13T03:55:04.107Z,551.1
2022-10-13T03:56:05.734Z,550.9
2022-10-13T03:57:07.929Z,550.9
2022-10-13T03:58:10.225Z,550.7
2022-10-13T03:59:12.417Z,550.9
2022-10-13T04:00:14.889Z,550.9
2022-10-13T04:01:17.382Z,551.1
2022-10-13T04:02:21.685Z,551
2022-10-13T04:03:24.187Z,551
2022-10-13T04:04:26.361Z,551.1
2022-10-13T04:05:28.550Z,550.8
2022-10-13T04:06:31.022Z,551
2022-10-13T04:07:33.231Z,551.1
2022-10-13T04:08:35.708Z,551.1
2022-10-13T04:09:37.619Z,550.4
2022-10-13T04:10:40.151Z,550.9
2022-10-13T04:11:42.327Z,550.6
2022-10-13T04:12:44.801Z,550.2
2022-10-13T04:13:47.141Z,550.5
2022-10-13T04:14:49.602Z,550.4
2022-10-13T04:15:51.805Z,550
2022-10-13T04:16:54.277Z,550.4
2022-10-13T04:17:56.755Z,550.2
2022-10-13T04:18:58.946Z,550.4
2022-10-13T04:20:00.875Z,550.1
2022-10-13T04:21:03.345Z,550.4
2022-10-13T04:22:05.547Z,550.3
2022-10-13T04:23:08.007Z,550.3
2022-10-13T04:24:09.917Z,550.6
2022-10-13T04:25:12.111Z,550.3
2022-10-13T04:26:14.620Z,550.7
2022-10-13T04:27:16.838Z,550.9
2022-10-13T04:28:19.343Z,550.3
2022-10-13T04:29:22.283Z,550.3
2022-10-13T04:30:24.871Z,550.6
2022-10-13T04:31:27.407Z,550.6
2022-10-13T04:32:29.926Z,550.6
2022-10-13T04:33:32.424Z,550.6
2022-10-13T04:34:34.619Z,550.7
2022-10-13T04:35:36.820Z,551.1
2022-10-13T04:36:39.289Z,551.1
2022-10-13T04:38:45.910Z,551.3
2022-10-13T04:39:48.092Z,551.6
2022-10-13T04:40:50.287Z,551.3
2022-10-13T04:41:52.823Z,551
2022-10-13T04:42:55.299Z,551.3
2022-10-13T04:43:57.486Z,550.8
2022-10-13T04:45:00.034Z,551
2022-10-13T04:46:02.005Z,551.4
2022-10-13T04:47:04.474Z,551.4
2022-10-13T04:48:06.950Z,551.2
2022-10-13T04:49:08.884Z,551.2
2022-10-13T04:50:10.816Z,551.2
2022-10-13T04:51:13.039Z,551.4
2022-10-13T04:52:14.937Z,551.2
2022-10-13T04:54:22.409Z,551.9
2022-10-13T04:55:24.305Z,551.9
2022-10-13T04:56:26.234Z,551.9
2022-10-13T04:57:28.736Z,551.9
2022-10-13T04:58:30.385Z,551.9
2022-10-13T04:59:32.857Z,551.6
2022-10-13T05:00:35.699Z,552.2
2022-10-13T05:01:37.913Z,552
2022-10-13T05:02:40.087Z,552.3
2022-10-13T05:03:42.560Z,552.1
2022-10-13T05:04:45.037Z,552.1
2022-10-13T05:05:46.953Z,552.5
2022-10-13T05:07:54.127Z,552.3
2022-10-13T05:08:56.326Z,552.5
2022-10-13T05:09:58.522Z,552.2
2022-10-13T05:11:00.692Z,552.1
2022-10-13T05:12:03.172Z,551.9
2022-10-13T05:13:05.676Z,552.1
2022-10-13T05:14:08.147Z,551.9
2022-10-13T05:15:10.616Z,552.1
2022-10-13T05:16:12.890Z,552.2
2022-10-13T05:17:15.112Z,552.1
2022-10-13T05:18:17.291Z,552.2
2022-10-13T05:19:19.481Z,552.4
2022-10-13T05:20:21.695Z,552
2022-10-13T05:21:23.900Z,552.1
2022-10-13T05:22:25.817Z,552.3
2022-10-13T05:23:28.304Z,552.2
2022-10-13T05:24:30.504Z,552
2022-10-13T05:26:37.149Z,552
2022-10-13T05:27:39.624Z,552.5
2022-10-13T05:28:42.259Z,552.3
2022-10-13T05:29:44.763Z,552.4
2022-10-13T05:30:46.702Z,552.5
2022-10-13T05:31:49.312Z,552.3
2022-10-13T05:33:56.495Z,552.2
2022-10-13T05:34:58.704Z,551.9
2022-10-13T05:36:00.911Z,552.1
2022-10-13T05:37:02.849Z,552
2022-10-13T05:38:05.326Z,552
2022-10-13T05:39:06.961Z,551.7
2022-10-13T05:40:08.866Z,551.9
2022-10-13T05:41:10.927Z,552.2
2022-10-13T05:42:13.421Z,552
2022-10-13T05:43:15.892Z,551.6
2022-10-13T05:44:18.238Z,551.7
2022-10-13T05:45:20.440Z,551.5
2022-10-13T05:46:22.671Z,551.9
2022-10-13T05:47:25.232Z,552
2022-10-13T05:48:26.607Z,551.9
2022-10-13T05:49:28.821Z,552.1
2022-10-13T05:50:31.312Z,552.1
2022-10-13T05:51:33.490Z,552
2022-10-13T05:52:35.688Z,552.6
2022-10-13T05:53:37.889Z,552.3
2022-10-13T05:54:40.364Z,552.4
2022-10-13T05:55:42.558Z,552.5
2022-10-13T05:56:44.498Z,552.4
2022-10-13T05:57:46.976Z,552.2
2022-10-13T05:58:49.206Z,552.3
2022-10-13T05:59:51.365Z,552.6
2022-10-13T06:00:53.853Z,552.4
2022-10-13T06:01:56.471Z,552.2
2022-10-13T06:02:59.016Z,552.3
2022-10-13T06:04:01.486Z,552.1
2022-10-13T06:05:03.699Z,552.2
2022-10-13T06:06:05.915Z,552
2022-10-13T06:07:07.835Z,552.3
2022-10-13T06:08:10.301Z,552.6
2022-10-13T06:09:12.475Z,552.3
2022-10-13T06:10:14.669Z,552.3
2022-10-13T06:11:17.140Z,552.1
2022-10-13T06:12:21.662Z,551.8
2022-10-13T06:13:24.288Z,552.4
2022-10-13T06:14:26.770Z,552.3
2022-10-13T06:15:30.222Z,552
2022-10-13T06:16:32.693Z,552.4
2022-10-13T06:17:34.617Z,552.3
2022-10-13T06:18:37.137Z,552.8
2022-10-13T06:19:39.623Z,552.5
2022-10-13T06:20:42.090Z,552.5
2022-10-13T06:21:44.564Z,552.5
2022-10-13T06:22:46.728Z,552
2022-10-13T06:23:49.207Z,551.8
2022-10-13T06:24:51.398Z,552.3
2022-10-13T06:25:53.600Z,552.4
2022-10-13T06:26:56.079Z,551.9
2022-10-13T06:27:58.274Z,552.4
2022-10-13T06:29:01.977Z,552.4
2022-10-13T06:30:04.208Z,552.4
2022-10-13T06:31:06.543Z,551.9
2022-10-13T06:32:08.764Z,551.8
2022-10-13T06:33:10.967Z,552.1
2022-10-13T06:34:13.222Z,552.3
2022-10-13T06:35:15.722Z,551.7
2022-10-13T06:36:18.197Z,551.5
2022-10-13T06:38:25.383Z,551.8
2022-10-13T06:39:27.853Z,551.8
2022-10-13T06:40:29.837Z,551.9
2022-10-13T06:41:32.307Z,552.1
2022-10-13T06:42:36.062Z,552.2
2022-10-13T06:44:43.775Z,552
2022-10-13T06:45:46.238Z,551.9
2022-10-13T06:46:48.399Z,551.9
2022-10-13T06:47:50.871Z,551.8
2022-10-13T06:48:52.805Z,551.7
2022-10-13T06:49:55.070Z,552
2022-10-13T06:50:57.287Z,551.7
2022-10-13T06:51:59.188Z,551.6
2022-10-13T06:53:01.393Z,551.7
2022-10-13T06:54:03.859Z,551.8
2022-10-13T06:55:06.086Z,551.5
2022-10-13T06:56:08.287Z,551.7
2022-10-13T06:57:10.490Z,551.5
2022-10-13T06:58:12.138Z,551.4
2022-10-13T06:59:14.346Z,551.7
2022-10-13T07:00:16.832Z,551.4
2022-10-13T07:01:19.313Z,551.7
2022-10-13T07:02:23.441Z,551.6
2022-10-13T07:03:25.949Z,551.5
2022-10-13T07:04:28.460Z,551.2
2022-10-13T07:05:31.001Z,551.5
2022-10-13T07:06:33.470Z,551.4
2022-10-13T07:07:35.955Z,551.5
2022-10-13T07:08:38.423Z,551.4
2022-10-13T07:09:40.903Z,551.3
2022-10-13T07:10:43.155Z,551.3
2022-10-13T07:11:45.631Z,551.6
2022-10-13T07:12:48.106Z,551.5
2022-10-13T07:13:50.867Z,551.5
2022-10-13T07:14:52.809Z,551.6
2022-10-13T07:15:55.023Z,551.8
2022-10-13T07:16:56.950Z,551.9
2022-10-13T07:17:59.467Z,552.1
2022-10-13T07:19:01.948Z,551.9
2022-10-13T07:21:09.523Z,551.9
2022-10-13T07:22:11.985Z,552.1
2022-10-13T07:23:14.488Z,552
2022-10-13T07:24:16.807Z,552.2
2022-10-13T07:25:18.725Z,552.2
2022-10-13T07:26:20.979Z,552.5
2022-10-13T07:27:25.552Z,552.3
2022-10-13T07:28:27.949Z,552.5
2022-10-13T07:29:30.172Z,552.2
2022-10-13T07:30:32.658Z,552.2
2022-10-13T07:31:35.134Z,552.3
2022-10-13T07:32:37.612Z,552
2022-10-13T07:33:39.842Z,552.4
2022-10-13T07:34:42.060Z,552.7
2022-10-13T07:35:44.533Z,551.9
2022-10-13T07:36:46.784Z,552.1
2022-10-13T07:37:49.278Z,552.1
2022-10-13T07:38:51.753Z,552
2022-10-13T07:39:54.249Z,551.9
2022-10-13T07:40:56.174Z,551.7
2022-10-13T07:41:58.650Z,552
2022-10-13T07:43:01.276Z,552.3
2022-10-13T07:44:03.752Z,552.5
2022-10-13T07:45:05.952Z,552.4
2022-10-13T07:46:08.436Z,552.7
2022-10-13T07:47:10.645Z,552.3
2022-10-13T07:48:12.965Z,552.4
2022-10-13T07:50:20.770Z,553.1
2022-10-13T07:51:23.019Z,553
2022-10-13T07:52:25.531Z,552.8
2022-10-13T07:53:27.990Z,552.9
2022-10-13T07:54:30.462Z,552.8
2022-10-13T07:55:32.673Z,552.8
2022-10-13T07:56:35.155Z,552.8
2022-10-13T07:57:37.072Z,552.7
2022-10-13T07:58:39.556Z,552.7
2022-10-13T07:59:41.749Z,552.7
2022-10-13T08:00:43.671Z,552.9
2022-10-13T08:01:46.091Z,553
2022-10-13T08:02:48.355Z,553.4
2022-10-13T08:03:52.147Z,553.4
2022-10-13T08:04:54.650Z,553.7
2022-10-13T08:05:56.701Z,553.6
2022-10-13T08:06:59.177Z,553.8
2022-10-13T08:08:01.814Z,553.7
2022-10-13T08:09:04.305Z,553.6
2022-10-13T08:10:06.787Z,553.8
2022-10-13T08:11:08.741Z,553.9
2022-10-13T08:12:10.684Z,553.6
2022-10-13T08:13:12.627Z,553.6
2022-10-13T08:14:15.122Z,553.5
2022-10-13T08:15:17.326Z,553.1
2022-10-13T08:16:19.853Z,553.4
2022-10-13T08:17:23.619Z,552.8
2022-10-13T08:18:26.094Z,553.2
2022-10-13T08:19:28.659Z,552.9
2022-10-13T08:22:40.886Z,552.6
2022-10-13T08:23:43.275Z,552.8
2022-10-13T08:24:45.197Z,552.9
2022-10-13T08:25:47.422Z,552.6
2022-10-13T08:26:49.897Z,552
2022-10-13T08:30:03.793Z,552.1
2022-10-13T08:31:06.800Z,552.1
2022-10-13T08:32:09.356Z,551.8
2022-10-13T08:33:11.532Z,552.2
2022-10-13T08:34:13.474Z,552.3
2022-10-13T08:35:15.686Z,552.8
2022-10-13T08:36:17.912Z,552.9
2022-10-13T08:37:20.123Z,552.8
2022-10-13T08:38:22.616Z,552.8
2022-10-13T08:39:25.054Z,552.9
2022-10-13T08:40:27.258Z,552.7
2022-10-13T08:41:29.745Z,552.5
2022-10-13T08:42:32.258Z,552.6
2022-10-13T08:43:34.740Z,552.7
2022-10-13T08:45:43.873Z,552.6
2022-10-13T08:46:46.345Z,552.8
2022-10-13T08:47:48.820Z,553
2022-10-13T08:48:51.290Z,552.8
2022-10-13T08:50:58.771Z,552.9
2022-10-13T08:52:00.998Z,553.2
2022-10-13T08:53:03.471Z,553.4
2022-10-13T08:54:05.420Z,553.8
2022-10-13T08:55:08.006Z,554.1
2022-10-13T08:56:10.492Z,554
2022-10-13T08:57:12.786Z,554.1
2022-10-13T08:58:14.716Z,554.1
2022-10-13T08:59:16.926Z,553.8
2022-10-13T09:00:19.119Z,553.8
2022-10-13T09:01:21.632Z,553.6
2022-10-13T09:02:24.132Z,553.8
2022-10-13T09:03:26.338Z,553.3
2022-10-13T09:04:28.814Z,553.5
2022-10-13T09:05:31.294Z,553.3
2022-10-13T09:06:33.511Z,553
2022-10-13T09:07:35.783Z,553.3
2022-10-13T09:08:38.251Z,553.5
2022-10-13T09:09:40.513Z,554.1
2022-10-13T09:10:42.847Z,553.6
2022-10-13T09:11:45.323Z,553.5
2022-10-13T09:12:47.534Z,553.9
2022-10-13T09:13:49.456Z,554.1
2022-10-13T09:14:51.941Z,553.3
2022-10-13T09:15:54.422Z,553.8
2022-10-13T09:16:56.600Z,553.8
2022-10-13T09:17:59.073Z,554.1
2022-10-13T09:19:00.990Z,554.4
2022-10-13T09:20:03.318Z,554.4
2022-10-13T09:21:05.532Z,554.3
2022-10-13T09:22:07.753Z,554.2
2022-10-13T09:23:09.997Z,554.8
2022-10-13T09:24:12.196Z,554.6
2022-10-13T09:25:14.430Z,555
2022-10-13T09:26:17.108Z,554.9
2022-10-13T09:27:19.580Z,554.9
2022-10-13T09:28:22.167Z,555.1
2022-10-13T09:29:24.724Z,555.1
2022-10-13T09:30:27.211Z,555
2022-10-13T09:31:29.469Z,554.9
2022-10-13T09:32:31.692Z,554.6
2022-10-13T09:33:34.195Z,554.6
2022-10-13T09:34:36.401Z,554.7
2022-10-13T09:35:37.777Z,554.6
2022-10-13T09:36:40.273Z,554.6
2022-10-13T09:37:42.484Z,554.7
2022-10-13T09:38:45.099Z,555
2022-10-13T09:39:47.369Z,555.3
2022-10-13T09:40:49.599Z,554.9
2022-10-13T09:41:51.847Z,555.2
2022-10-13T09:42:54.326Z,555.2
2022-10-13T09:43:56.851Z,555.6
2022-10-13T09:44:59.319Z,555.3
2022-10-13T09:46:01.838Z,555.4
2022-10-13T09:47:04.042Z,555.8
2022-10-13T09:48:06.269Z,555.2
2022-10-13T09:49:08.487Z,555.4
2022-10-13T09:50:10.399Z,555.5
2022-10-13T09:51:12.877Z,555.6
2022-10-13T09:52:15.367Z,555.3
2022-10-13T09:53:17.850Z,555.7
2022-10-13T09:54:19.796Z,555.4
2022-10-13T09:55:21.980Z,555.9
2022-10-13T09:56:23.951Z,556
2022-10-13T09:57:26.501Z,555.6
2022-10-13T09:58:28.986Z,555.8
2022-10-13T09:59:31.178Z,556
2022-10-13T10:00:33.403Z,556.2
2022-10-13T10:01:35.593Z,556.3
2022-10-13T10:02:38.310Z,556.5
2022-10-13T10:03:41.121Z,556.2
2022-10-13T10:04:43.612Z,556
2022-10-13T10:05:46.105Z,555.9
2022-10-13T10:06:48.608Z,556.4
2022-10-13T10:07:50.856Z,556.2
2022-10-13T10:09:58.071Z,555.8
2022-10-13T10:11:00.286Z,555.6
2022-10-13T10:12:02.244Z,555.9
2022-10-13T10:13:04.791Z,556
2022-10-13T10:14:06.976Z,556.1
2022-10-13T10:15:09.445Z,556
2022-10-13T10:16:11.674Z,556
2022-10-13T10:17:13.922Z,556.5
2022-10-13T10:18:15.878Z,556.5
2022-10-13T10:19:18.098Z,556.2
2022-10-13T10:20:20.050Z,556.6
2022-10-13T10:21:22.716Z,556.4
2022-10-13T10:22:24.919Z,556.4
2022-10-13T10:23:27.121Z,556.6
2022-10-13T10:24:29.333Z,556.2
2022-10-13T10:25:31.655Z,556.1
2022-10-13T10:26:34.917Z,556.4
2022-10-13T10:28:42.968Z,556.4
2022-10-13T10:29:45.206Z,556.4
2022-10-13T10:30:47.411Z,556.7
2022-10-13T10:31:49.058Z,556.5
2022-10-13T10:32:51.269Z,556.7
2022-10-13T10:33:53.743Z,556.6
2022-10-13T10:34:55.989Z,556.7
2022-10-13T10:35:58.473Z,557.1
2022-10-13T10:37:00.991Z,556.8
2022-10-13T10:38:02.923Z,557.1
2022-10-13T10:39:05.172Z,557.5
2022-10-13T10:40:07.358Z,557.6
2022-10-13T10:41:09.739Z,557.7
2022-10-13T10:42:11.675Z,557.9
2022-10-13T10:43:13.603Z,558.2
2022-10-13T10:44:15.968Z,557.9
2022-10-13T10:45:18.444Z,558.4
2022-10-13T10:46:20.657Z,558.1
2022-10-13T10:48:27.883Z,558.4
2022-10-13T10:49:30.343Z,558.5
2022-10-13T10:50:32.259Z,558.7
2022-10-13T10:51:34.180Z,558.8
2022-10-13T10:52:36.660Z,558.8
2022-10-13T10:53:38.586Z,559.3
2022-10-13T10:55:47.259Z,559.3
2022-10-13T10:56:49.471Z,559.3
2022-10-13T10:57:51.670Z,559.5
2022-10-13T10:58:53.874Z,559.3
2022-10-13T10:59:56.463Z,559.3
2022-10-13T11:00:58.391Z,559.9
2022-10-13T11:02:00.598Z,559.7
2022-10-13T11:03:03.086Z,559.6
2022-10-13T11:04:05.562Z,559.8
2022-10-13T11:05:07.839Z,560
2022-10-13T11:06:09.757Z,559.9
2022-10-13T11:07:11.977Z,560.3
2022-10-13T11:08:13.619Z,560.6
2022-10-13T11:09:16.154Z,560.7
2022-10-13T11:10:18.653Z,561.3
2022-10-13T11:12:26.137Z,561.8
2022-10-13T11:13:28.644Z,561.8
2022-10-13T11:14:30.590Z,561.9
2022-10-13T11:15:33.105Z,561.9
2022-10-13T11:16:35.017Z,562.2
2022-10-13T11:17:37.196Z,562.2
2022-10-13T11:18:39.410Z,562.2
2022-10-13T11:19:41.641Z,562
2022-10-13T11:20:44.132Z,562.2
2022-10-13T11:21:46.053Z,562.4
2022-10-13T11:22:47.705Z,562.9
2022-10-13T11:23:49.928Z,562.7
2022-10-13T11:24:52.419Z,562.9
2022-10-13T11:25:54.911Z,563.1
2022-10-13T11:26:57.393Z,563.5
2022-10-13T11:27:59.634Z,563.4
2022-10-13T11:29:02.116Z,563.5
2022-10-13T11:30:04.013Z,563.4
2022-10-13T11:31:06.366Z,563.7
2022-10-13T11:32:08.572Z,563.5
2022-10-13T11:33:10.506Z,563.8
2022-10-13T11:34:12.704Z,564.3
2022-10-13T11:35:14.913Z,563.6
2022-10-13T11:36:17.387Z,563.9
2022-10-13T11:37:19.301Z,563.9
2022-10-13T11:38:21.217Z,563.4
2022-10-13T11:39:24.021Z,563.4
2022-10-13T11:40:26.235Z,563.1
2022-10-13T11:41:28.167Z,563.4
2022-10-13T11:42:30.348Z,563.9
2022-10-13T11:43:32.848Z,563.4
2022-10-13T11:44:35.329Z,563.6
2022-10-13T11:45:37.817Z,563.7
2022-10-13T11:46:40.322Z,563.6
2022-10-13T11:47:42.520Z,564
2022-10-13T11:48:45.004Z,564.2
2022-10-13T11:49:47.504Z,564.1
2022-10-13T11:50:49.700Z,564.3
2022-10-13T11:51:52.182Z,564.2
2022-10-13T11:52:54.104Z,564.3
2022-10-13T11:53:56.320Z,565
2022-10-13T11:54:58.697Z,564.9
2022-10-13T11:56:00.628Z,565.3
2022-10-13T11:57:02.821Z,565.1
2022-10-13T11:58:05.042Z,565.5
2022-10-13T11:59:07.305Z,565.5
2022-10-13T12:00:09.783Z,565.8
2022-10-13T12:01:11.993Z,566.2
2022-10-13T12:03:20.436Z,566.3
2022-10-13T12:04:22.904Z,566.4
2022-10-13T12:05:25.393Z,566.8
2022-10-13T12:06:27.311Z,567
2022-10-13T12:07:29.521Z,567.4
2022-10-13T12:08:32.010Z,566.8
2022-10-13T12:09:34.219Z,567.7
2022-10-13T12:10:36.149Z,567.9
2022-10-13T12:11:38.337Z,568
2022-10-13T12:12:40.528Z,568.3
2022-10-13T12:13:43.043Z,568.1
2022-10-13T12:14:45.297Z,568.5
2022-10-13T12:15:47.786Z,568.2
2022-10-13T12:16:50.235Z,568.6
2022-10-13T12:17:52.787Z,568.6
2022-10-13T12:18:55.030Z,568.3
2022-10-13T12:19:57.537Z,568.2
2022-10-13T12:20:59.466Z,568.5
2022-10-13T12:22:01.666Z,568.4
2022-10-13T12:23:03.577Z,568.5
2022-10-13T12:24:05.759Z,568.8
2022-10-13T12:25:08.235Z,568.5
2022-10-13T12:26:10.721Z,568.4
2022-10-13T12:27:13.194Z,568.6
2022-10-13T12:28:15.992Z,568.6
2022-10-13T12:29:18.491Z,568.7
2022-10-13T12:30:21.011Z,568.9
2022-10-13T12:31:23.232Z,568.8
2022-10-13T12:32:25.438Z,569
2022-10-13T12:33:27.401Z,568.5
2022-10-13T12:34:29.937Z,568.4
2022-10-13T12:35:32.440Z,568.6
2022-10-13T12:36:34.649Z,568.8
2022-10-13T12:37:37.147Z,568.3
2022-10-13T12:38:39.351Z,568.5
2022-10-13T12:39:41.833Z,568.5
2022-10-13T12:40:44.047Z,568.9
2022-10-13T12:41:46.603Z,569.1
2022-10-13T12:42:49.266Z,569
2022-10-13T12:43:51.750Z,569.1
2022-10-13T12:44:54.023Z,569.4
2022-10-13T12:45:56.561Z,569.6
2022-10-13T12:46:58.797Z,569.8
2022-10-13T12:48:00.751Z,569.4
2022-10-13T12:49:03.054Z,569
2022-10-13T12:50:06.123Z,569.3
2022-10-13T12:51:08.614Z,569.4
2022-10-13T12:52:10.534Z,569.4
2022-10-13T12:53:13.073Z,569.7
2022-10-13T12:54:15.555Z,570
2022-10-13T12:55:17.485Z,570
2022-10-13T12:56:19.962Z,570.3
2022-10-13T12:57:22.451Z,570
2022-10-13T12:58:24.698Z,570.7
2022-10-13T12:59:26.658Z,570.8
2022-10-13T13:00:29.719Z,571.1
2022-10-13T13:01:32.301Z,571
2022-10-13T13:02:34.794Z,571
2022-10-13T13:03:37.348Z,571.6
2022-10-13T13:04:39.924Z,571.8
2022-10-13T13:05:42.227Z,571.6
2022-10-13T13:06:44.435Z,571.4
2022-10-13T13:07:46.937Z,571.7
2022-10-13T13:08:49.419Z,571.5
2022-10-13T13:09:51.634Z,571.5
2022-10-13T13:10:53.836Z,571.8
2022-10-13T13:11:56.263Z,571.5
2022-10-13T13:12:58.195Z,571.9
2022-10-13T13:14:00.422Z,571.8
2022-10-13T13:15:02.330Z,572.1
2022-10-13T13:16:04.812Z,571.5
2022-10-13T13:17:07.419Z,571.5
2022-10-13T13:18:09.922Z,571.7
2022-10-13T13:19:12.411Z,571.7
2022-10-13T13:20:14.943Z,571.9
2022-10-13T13:21:17.479Z,571.7
2022-10-13T13:22:21.853Z,571.7
2022-10-13T13:23:24.542Z,571.7
2022-10-13T13:25:31.464Z,571.6
2022-10-13T13:26:33.695Z,571.6
2022-10-13T13:27:36.187Z,571.8
2022-10-13T13:28:38.995Z,572
2022-10-13T13:29:41.212Z,572.1
2022-10-13T13:30:43.153Z,572.2
2022-10-13T13:31:45.362Z,572.2
2022-10-13T13:32:48.157Z,572.6
2022-10-13T13:33:50.632Z,572.6
2022-10-13T13:34:52.661Z,573.2
2022-10-13T13:35:55.259Z,573.1
2022-10-13T13:36:57.530Z,573.2
2022-10-13T13:38:00.015Z,573.3
2022-10-13T13:39:02.226Z,573.5
2022-10-13T13:40:04.708Z,573.3
2022-10-13T13:41:07.193Z,573.2
2022-10-13T13:42:09.399Z,573.1
2022-10-13T13:43:11.594Z,573.2
2022-10-13T13:44:14.075Z,573
2022-10-13T13:45:16.560Z,573.2
2022-10-13T13:46:18.784Z,573
2022-10-13T13:47:23.319Z,573.2
2022-10-13T13:48:25.933Z,573.4
2022-10-13T13:49:27.885Z,573.1
2022-10-13T13:50:30.175Z,573.2
2022-10-13T13:51:32.781Z,573.4
2022-10-13T13:52:35.351Z,573.3